大阪空港の過去48時間の天気

大阪空港 (Osaka/Intl)

現在時刻: 4/26 20:20 JST (4/26 11:20 UTC) 以下の時間は現地時間です。

過去48時間のMETAR気象情報
時間 風向 風速(m/s) 視程 気温(℃) 湿度(%) 気圧(hPa) 天気現象
26 20:00 南東 3 10km以上 18 49 1012
26 19:00 不定 1 10km以上 19 46 1012
26 18:00 南西 3 10km以上 20 40 1011
26 17:00 南西 3 10km以上 21 38 1011
26 16:00 南南西 3 10km以上 21 38 1011
26 15:00 南南西 3 10km以上 22 33 1011
26 14:00 不定 2 10km以上 21 38 1011
26 13:00 不定 2 10km以上 22 35 1012
26 12:00 西 3 10km以上 21 38 1013
26 11:00 南南東 2 10km以上 18 42 1014
26 10:00 3 10km以上 17 45 1014
26 09:00 不定 2 10km以上 16 48 1014
26 08:00 北北西 5 10km以上 14 51 1014
26 07:00 北北西 3 10km以上 13 58 1014
26 06:00 3 10km以上 13 58 1013
26 05:00 北北西 3 10km以上 12 62 1013
25 20:00 北北西 5 10km以上 14 59 1010
25 19:00 北北西 7 10km以上 14 63 1009
25 18:00 北北西 6 10km以上 15 63 1008
25 17:00 北北西 7 10km以上 16 59 1008
25 16:00 北北西 6 10km以上 16 63 1007
25 15:00 6 10km以上 17 59 1006
25 14:00 北北西 6 10km以上 18 60 1006
25 13:00 北西 5 10km以上 18 60 1006
25 12:00 北北西 6 10km以上 18 60 1005
25 11:00 北北西 6 10km以上 18 64 1005
25 10:00 北北西 7 10km以上 18 64 1005
25 09:00 北西 6 10km以上 17 68 1004
25 08:00 北北西 5 10km以上 17 77 1003 周辺でしゅう雨
25 07:00 北西 7 10km以上 17 83 1002 弱いしゅう雨
25 06:00 北北西 6 6,000m 18 88 1000 弱いしゅう雨 もや
25 05:35 北西 2 6,000m 18 94 1000 弱いしゅう雨 もや
25 05:25 北西 2 4,500m 18 94 1000 弱いしゅう雨 もや
25 05:11 北北西 2 4,000m 18 94 1000 弱いしゅう雨 もや
25 05:00 3 5,000m 18 94 999 弱いしゅう雨 もや
RJOO 261100Z 13006KT CAVOK 18/07 Q1012 RMK A2990
RJOO 261000Z VRB02KT CAVOK 19/07 Q1012 RMK A2988
RJOO 260900Z 22005KT 180V250 CAVOK 20/06 Q1011 RMK A2988
RJOO 260800Z 22006KT 180V250 CAVOK 21/06 Q1011 RMK A2986
RJOO 260700Z 21005KT 160V250 CAVOK 21/06 Q1011 RMK A2986
RJOO 260600Z 20005KT 140V260 CAVOK 22/05 Q1011 RMK A2987
RJOO 260500Z VRB03KT CAVOK 21/06 Q1011 RMK A2988
RJOO 260400Z VRB04KT CAVOK 22/06 Q1012 RMK A2991
RJOO 260300Z 28005KT 220V360 CAVOK 21/06 Q1013 RMK A2992
RJOO 260200Z 15003KT 060V220 9999 FEW030 BKN/// 18/05 Q1014 RMK 1CU030 A2994
RJOO 260100Z 36005KT 300V050 9999 FEW030 BKN/// 17/05 Q1014 RMK 1CU030 A2995
RJOO 260000Z VRB04KT 9999 FEW025 SCT035 BKN/// 16/05 Q1014 RMK 1CU025 3CU035 A2996
RJOO 252300Z 34009KT 310V020 9999 FEW025 BKN035 14/04 Q1014 RMK 1CU025 6CU035 A2997
RJOO 252200Z 33005KT 290V360 9999 FEW025 BKN035 13/05 Q1014 RMK 1CU025 6CU035 A2996
RJOO 252100Z 36005KT 330V060 9999 FEW020 BKN030 13/05 Q1013 RMK 1CU020 6CU030 A2994
RJOO 252000Z 33005KT 290V010 9999 FEW010 BKN025 12/05 Q1013 RMK 1ST010 6CU025 A2992
RJOO 251100Z 34009KT 9999 FEW030 BKN040 14/06 Q1010 RMK 2CU030 5CU040 A2983
RJOO 251000Z 33013KT 9999 FEW020 BKN030 14/07 Q1009 RMK 1CU020 6CU030 A2981
RJOO 250900Z 34011KT 9999 FEW020 BKN030 15/08 Q1008 RMK 1CU020 7CU030 A2979
RJOO 250800Z 33013KT 9999 FEW025 BKN035 16/08 Q1008 RMK 1CU025 7CU035 A2977
RJOO 250700Z 34011KT 300V360 9999 FEW015 BKN030 16/09 Q1007 RMK 1CU015 7CU030 A2975
RJOO 250600Z 36011KT 9999 FEW015 BKN030 17/09 Q1006
RJOO 250500Z 34011KT 320V020 9999 FEW015 BKN030 18/10 Q1006
RJOO 250400Z 31009KT 9999 FEW010 BKN030 18/10 Q1006
RJOO 250300Z 33012KT 9999 FEW008 BKN030 BKN050 18/10 Q1005
RJOO 250200Z 33012KT 9999 FEW005 BKN025 BKN045 18/11 Q1005 RMK 1ST005 5CU025 6SC045 A2970
RJOO 250100Z 33014KT 9999 FEW005 SCT025 BKN050 18/11 Q1005 RMK 1ST005 3CU025 6SC050 A2969
RJOO 250000Z 32011KT 9999 FEW005 SCT015 BKN040 17/11 Q1004 RMK 1ST005 3CU015 6CU040 A2966
RJOO 242300Z 33010KT 9999 VCSH FEW005 SCT015 BKN040 17/13 Q1003
RJOO 242200Z 32013KT 9999 -SHRA FEW003 SCT015 BKN030 17/14 Q1002 RMK 1ST003 3CU015 5CU030 A2959
RJOO 242100Z 34012KT 310V020 6000 -SHRA BR FEW003 SCT008 BKN015 18/16 Q1000 RMK 1ST003 3ST008 5CU015 A2955
RJOO 242035Z 31004KT 6000 -SHRA BR FEW003 SCT008 BKN015 18/17 Q1000 RMK 1ST003 3ST008 5CU015 A2954 3000SE
RJOO 242025Z 31004KT 270V340 4500 -SHRA BR FEW003 SCT008 BKN015 18/17 Q1000 RMK 1ST003 3ST008 5CU015 A2953 9999W-N
RJOO 242011Z 33004KT 4000 -SHRA BR FEW002 SCT008 BKN015 18/17 Q1000 RMK 1ST002 4ST008 5CU015 A2953
RJOO 242000Z 35005KT 310V040 5000 -SHRA BR FEW005 SCT015 BKN020 18/17 Q0999 RMK 1ST005 4CU015 6CU020 A2952